Accueil
METAR-TAF:

METAR-TAF

Aéroports :

Mönchengladbach, Allemagne

latitude: 51-13-49N, longitude: 006-30-16E, altitude: 38 m

Observation

Le bulletin a été fait il y a 5 heures et 48 minutes, à 17:50 UTC
Vent 8 kt de nord-ouest, variant entre ouest et nord/nord-ouest
Température 18°C
Humidité 56%
Pression 1024 hPa
Visibilité 10 km ou plus
Quelques nuages à une hauteur de 3800 ft
Nuages épars à une hauteur de 6300 ft

METAR: EDLN 231750Z 32008KT 280V340 9999 FEW038 SCT063 18/09 Q1024

Heure: 01:38 (23:38 UTC)

Prévision

Le bulletin a été fait il y a 6 heures et 38 minutes, à 17:00 UTC
Prévision valable du 23 à 18 UTC au 24 à 03 UTC
Vent 9 kt de ouest/nord-ouest
Visibilité 10 km ou plus
Nuages épars à une hauteur de 4000 ft
Evoluant progressivement
du 23 à 18 UTC au 23 à 21 UTC
Vent 3 kt de ouest/nord-ouest

TAF: EDLN 231700Z 2318/2403 29009KT 9999 SCT040 BECMG 2318/2321 30003KT

Observations et prévisions météorologiques de plus de 4000 aéroports (messages METAR et TAF).

Les stations disponibles sont représentées par des disques jaunes et rouges sur la carte.

Passer la souris dessus pour voir le nom de la station.

Cliquer dessus pour voir les observations et prévisions météorologiques.

Pour changer de carte: cliquez sur les boutons verts avec une croix noire pour zoomer, sur le bouton vert avec un tiret pour effectuer un zoom arrière, ou sur les flèches vertes pour les cartes adjacentes.


METAR-TAF: